createdAt,value
2016-06-09T00:00:53.313Z,0
2016-06-09T00:01:53.349Z,0
2016-06-09T00:02:53.680Z,0
2016-06-09T00:03:53.792Z,0
2016-06-09T00:04:53.420Z,0
2016-06-09T00:05:53.439Z,0
2016-06-09T00:06:53.473Z,0
2016-06-09T00:07:53.492Z,0
2016-06-09T00:08:53.730Z,0
2016-06-09T00:09:53.607Z,0
2016-06-09T00:10:53.580Z,0
2016-06-09T00:11:53.629Z,0
2016-06-09T00:12:53.663Z,0
2016-06-09T00:13:53.650Z,0
2016-06-09T00:14:53.685Z,0
2016-06-09T00:15:53.703Z,0
2016-06-09T00:16:53.737Z,0
2016-06-09T00:17:53.788Z,0
2016-06-09T00:18:53.806Z,0
2016-06-09T00:19:54.794Z,0
2016-06-09T00:20:53.844Z,0
2016-06-09T00:21:53.894Z,0
2016-06-09T00:22:53.881Z,0
2016-06-09T00:23:53.917Z,0
2016-06-09T00:24:53.966Z,0
2016-06-09T00:25:53.969Z,0
2016-06-09T00:26:54.019Z,0
2016-06-09T00:27:54.022Z,0
2016-06-09T00:28:54.057Z,0
2016-06-09T00:29:54.074Z,0
2016-06-09T00:30:54.110Z,0
2016-06-09T00:31:54.144Z,0
2016-06-09T00:32:54.897Z,0
2016-06-09T00:33:54.197Z,0
2016-06-09T00:34:54.215Z,0
2016-06-09T00:35:54.235Z,0
2016-06-09T00:36:54.268Z,0
2016-06-09T00:37:54.287Z,0
2016-06-09T00:38:54.322Z,0
2016-06-09T00:39:54.355Z,0
2016-06-09T00:40:54.374Z,0
2016-06-09T00:41:54.394Z,0
2016-06-09T00:42:54.428Z,0
2016-06-09T00:43:54.445Z,0
2016-06-09T00:44:54.481Z,0
2016-06-09T00:45:54.498Z,0
2016-06-09T00:46:54.518Z,0
2016-06-09T00:47:54.552Z,0
2016-06-09T00:48:54.665Z,0
2016-06-09T00:49:54.449Z,0
2016-06-09T00:50:54.624Z,0
2016-06-09T00:51:54.659Z,0
2016-06-09T00:52:54.677Z,0
2016-06-09T00:53:54.712Z,0
2016-06-09T00:54:54.590Z,0
2016-06-09T00:55:54.764Z,0
2016-06-09T00:56:54.782Z,0
2016-06-09T00:57:54.818Z,0
2016-06-09T00:58:54.852Z,0
2016-06-09T00:59:54.870Z,0
2016-06-09T01:00:54.905Z,0
2016-06-09T01:01:54.923Z,0
2016-06-09T01:02:54.942Z,0
2016-06-09T01:03:55.023Z,0
2016-06-09T01:04:55.010Z,0
2016-06-09T01:05:54.874Z,0
2016-06-09T01:06:55.063Z,0
2016-06-09T01:07:55.082Z,0
2016-06-09T01:08:56.476Z,0
2016-06-09T01:09:55.151Z,0
2016-06-09T01:10:55.154Z,0
2016-06-09T01:11:55.204Z,0
2016-06-09T01:12:55.223Z,0
2016-06-09T01:13:55.242Z,0
2016-06-09T01:14:55.260Z,0
2016-06-09T01:15:55.279Z,0
2016-06-09T01:16:55.329Z,0
2016-06-09T01:17:55.347Z,0
2016-06-09T01:18:56.133Z,0
2016-06-09T01:19:55.385Z,0
2016-06-09T01:20:55.419Z,0
2016-06-09T01:21:55.454Z,0
2016-06-09T01:22:55.473Z,0
2016-06-09T01:23:55.522Z,0
2016-06-09T01:24:55.526Z,0
2016-06-09T01:25:55.560Z,0
2016-06-09T01:26:55.578Z,0
2016-06-09T01:27:55.596Z,0
2016-06-09T01:28:55.631Z,0
2016-06-09T01:29:55.698Z,0
2016-06-09T01:30:55.684Z,0
2016-06-09T01:31:55.703Z,0
2016-06-09T01:32:55.737Z,0
2016-06-09T01:33:56.038Z,0
2016-06-09T01:34:55.790Z,0
2016-06-09T01:35:55.809Z,0
2016-06-09T01:36:55.859Z,0
2016-06-09T01:37:55.861Z,0
2016-06-09T01:38:55.897Z,0
2016-06-09T01:39:55.915Z,0
2016-06-09T01:40:55.950Z,0
2016-06-09T01:41:55.984Z,0
2016-06-09T01:42:56.002Z,0
2016-06-09T01:43:56.021Z,0
2016-06-09T01:44:56.055Z,0
2016-06-09T01:45:56.075Z,0
2016-06-09T01:46:56.124Z,0
2016-06-09T01:47:56.128Z,0
2016-06-09T01:48:57.459Z,0
2016-06-09T01:49:56.181Z,0
2016-06-09T01:50:56.199Z,0
2016-06-09T01:51:56.218Z,0
2016-06-09T01:52:56.252Z,0
2016-06-09T01:53:56.286Z,0
2016-06-09T01:54:56.304Z,0
2016-06-09T01:55:56.339Z,0
2016-06-09T01:56:56.358Z,0
2016-06-09T01:57:56.408Z,0
2016-06-09T01:58:56.426Z,0
2016-06-09T01:59:56.446Z,0
2016-06-09T02:00:56.307Z,0
2016-06-09T02:01:56.514Z,0
2016-06-09T02:02:56.518Z,0
2016-06-09T02:03:56.739Z,0
2016-06-09T02:04:56.633Z,0
2016-06-09T02:05:56.589Z,0
2016-06-09T02:06:56.623Z,0
2016-06-09T02:07:56.658Z,0
2016-06-09T02:08:56.676Z,0
2016-06-09T02:09:56.554Z,0
2016-06-09T02:10:56.729Z,0
2016-06-09T02:11:56.763Z,0
2016-06-09T02:12:56.782Z,0
2016-06-09T02:13:56.802Z,0
2016-06-09T02:14:56.835Z,0
2016-06-09T02:15:56.870Z,0
2016-06-09T02:16:56.889Z,0
2016-06-09T02:17:56.923Z,0
2016-06-09T02:18:57.066Z,0
2016-06-09T02:19:56.960Z,0
2016-06-09T02:20:56.994Z,0
2016-06-09T02:21:57.028Z,0
2016-06-09T02:22:57.032Z,0
2016-06-09T02:23:57.066Z,0
2016-06-09T02:24:57.100Z,0
2016-06-09T02:25:57.134Z,0
2016-06-09T02:26:57.153Z,0
2016-06-09T02:27:57.172Z,0
2016-06-09T02:28:57.191Z,0
2016-06-09T02:29:57.226Z,0
2016-06-09T02:30:57.244Z,0
2016-06-09T02:31:57.294Z,0
2016-06-09T02:32:57.297Z,0
2016-06-09T02:33:57.331Z,0
2016-06-09T02:34:57.366Z,0
2016-06-09T02:35:57.384Z,0
2016-06-09T02:36:57.403Z,0
2016-06-09T02:37:57.437Z,0
2016-06-09T02:38:57.488Z,0
2016-06-09T02:39:57.490Z,0
2016-06-09T02:40:57.509Z,0
2016-06-09T02:41:57.388Z,0
2016-06-09T02:42:57.578Z,0
2016-06-09T02:43:57.596Z,0
2016-06-09T02:44:57.631Z,0
2016-06-09T02:45:57.649Z,0
2016-06-09T02:46:57.668Z,0
2016-06-09T02:47:57.702Z,0
2016-06-09T02:48:58.548Z,0
2016-06-09T02:49:57.693Z,0
2016-06-09T02:50:57.774Z,0
2016-06-09T02:51:57.793Z,0
2016-06-09T02:52:57.827Z,0
2016-06-09T02:53:57.845Z,0
2016-06-09T02:54:57.880Z,0
2016-06-09T02:55:57.899Z,0
2016-06-09T02:56:57.933Z,4
2016-06-09T02:57:57.967Z,4
2016-06-09T02:58:57.986Z,0
2016-06-09T02:59:58.021Z,4
2016-06-09T03:00:58.038Z,4
2016-06-09T03:01:58.074Z,8
2016-06-09T03:02:58.092Z,4
2016-06-09T03:03:58.142Z,4
2016-06-09T03:04:58.208Z,4
2016-06-09T03:05:58.165Z,4
2016-06-09T03:06:58.198Z,8
2016-06-09T03:07:58.217Z,8
2016-06-09T03:08:58.252Z,8
2016-06-09T03:09:58.270Z,8
2016-06-09T03:10:58.304Z,8
2016-06-09T03:11:58.323Z,12
2016-06-09T03:12:58.342Z,12
2016-06-09T03:13:58.376Z,12
2016-06-09T03:14:58.409Z,12
2016-06-09T03:15:58.429Z,16
2016-06-09T03:16:58.448Z,16
2016-06-09T03:17:58.482Z,16
2016-06-09T03:18:58.813Z,16
2016-06-09T03:19:58.457Z,16
2016-06-09T03:20:58.553Z,20
2016-06-09T03:21:58.572Z,24
2016-06-09T03:22:58.606Z,24
2016-06-09T03:23:58.641Z,24
2016-06-09T03:24:58.675Z,24
2016-06-09T03:25:58.694Z,24
2016-06-09T03:26:58.713Z,24
2016-06-09T03:27:58.731Z,28
2016-06-09T03:28:58.766Z,28
2016-06-09T03:29:58.800Z,32
2016-06-09T03:30:58.819Z,32
2016-06-09T03:31:58.853Z,36
2016-06-09T03:32:58.873Z,36
2016-06-09T03:33:58.937Z,36
2016-06-09T03:34:58.768Z,44
2016-06-09T03:35:58.944Z,44
2016-06-09T03:36:58.978Z,52
2016-06-09T03:37:58.996Z,52
2016-06-09T03:38:59.031Z,64
2016-06-09T03:39:59.050Z,64
2016-06-09T03:40:59.100Z,68
2016-06-09T03:41:59.102Z,68
2016-06-09T03:42:59.137Z,68
2016-06-09T03:43:59.156Z,76
2016-06-09T03:44:59.190Z,76
2016-06-09T03:45:59.240Z,88
2016-06-09T03:46:59.227Z,100
2016-06-09T03:47:59.261Z,100
2016-06-09T03:48:59.155Z,100
2016-06-09T03:50:00.393Z,104
2016-06-09T03:50:59.192Z,104
2016-06-09T03:51:59.367Z,104
2016-06-09T03:52:59.402Z,112
2016-06-09T03:53:59.421Z,116
2016-06-09T03:54:59.454Z,132
2016-06-09T03:55:59.474Z,144
2016-06-09T03:56:59.508Z,156
2016-06-09T03:57:59.542Z,160
2016-06-09T03:58:59.389Z,172
2016-06-09T03:59:59.580Z,184
2016-06-09T04:00:59.598Z,196
2016-06-09T04:01:59.633Z,200
2016-06-09T04:02:59.668Z,196
2016-06-09T04:03:59.874Z,200
2016-06-09T04:04:59.970Z,212
2016-06-09T04:05:59.739Z,220
2016-06-09T04:06:59.602Z,224
2016-06-09T04:07:59.792Z,220
2016-06-09T04:08:59.810Z,216
2016-06-09T04:09:59.845Z,228
2016-06-09T04:10:59.864Z,240
2016-06-09T04:11:59.742Z,240
2016-06-09T04:12:59.932Z,236
2016-06-09T04:13:59.951Z,232
2016-06-09T04:14:59.969Z,244
2016-06-09T04:15:59.833Z,256
2016-06-09T04:17:00.039Z,248
2016-06-09T04:18:00.041Z,244
2016-06-09T04:19:00.075Z,256
2016-06-09T04:20:00.110Z,268
2016-06-09T04:21:00.145Z,284
2016-06-09T04:22:00.162Z,280
2016-06-09T04:23:00.182Z,296
2016-06-09T04:24:00.201Z,308
2016-06-09T04:25:00.094Z,332
2016-06-09T04:26:00.269Z,356
2016-06-09T04:27:00.303Z,372
2016-06-09T04:28:00.322Z,372
2016-06-09T04:29:00.341Z,380
2016-06-09T04:30:00.360Z,396
2016-06-09T04:31:00.394Z,408
2016-06-09T04:32:00.257Z,452
2016-06-09T04:33:00.431Z,512
2016-06-09T04:34:00.482Z,564
2016-06-09T04:35:01.203Z,592
2016-06-09T04:36:00.518Z,604
2016-06-09T04:37:00.553Z,636
2016-06-09T04:38:00.572Z,684
2016-06-09T04:39:00.606Z,752
2016-06-09T04:40:00.625Z,808
2016-06-09T04:41:00.503Z,856
2016-06-09T04:42:00.693Z,884
2016-06-09T04:43:00.712Z,872
2016-06-09T04:44:00.731Z,872
2016-06-09T04:45:00.765Z,916
2016-06-09T04:46:00.783Z,900
2016-06-09T04:47:00.818Z,860
2016-06-09T04:48:00.837Z,884
2016-06-09T04:49:00.855Z,948
2016-06-09T04:50:00.781Z,932
2016-06-09T04:51:00.924Z,912
2016-06-09T04:52:00.943Z,1028
2016-06-09T04:53:01.008Z,1272
2016-06-09T04:54:00.996Z,1748
2016-06-09T04:55:00.858Z,2412
2016-06-09T04:56:01.064Z,2876
2016-06-09T04:57:01.083Z,2988
2016-06-09T04:58:01.102Z,2924
2016-06-09T04:59:01.137Z,2844
2016-06-09T05:00:01.154Z,2932
2016-06-09T05:01:01.190Z,2980
2016-06-09T05:02:01.224Z,2968
2016-06-09T05:03:01.242Z,2936
2016-06-09T05:04:02.136Z,2996
2016-06-09T05:05:01.138Z,3148
2016-06-09T05:06:01.314Z,3540
2016-06-09T05:07:01.333Z,3808
2016-06-09T05:08:01.382Z,3824
2016-06-09T05:09:01.386Z,3972
2016-06-09T05:10:01.420Z,4116
2016-06-09T05:11:01.438Z,4252
2016-06-09T05:12:01.317Z,4728
2016-06-09T05:13:01.492Z,5208
2016-06-09T05:14:01.541Z,5380
2016-06-09T05:15:01.561Z,5156
2016-06-09T05:16:01.579Z,5212
2016-06-09T05:17:01.598Z,5760
2016-06-09T05:18:01.476Z,8540
2016-06-09T05:19:01.651Z,7300
2016-06-09T05:20:02.185Z,13520
2016-06-09T05:21:01.719Z,16640
2016-06-09T05:22:01.738Z,17184
2016-06-09T05:23:01.757Z,17920
2016-06-09T05:24:01.806Z,17952
2016-06-09T05:25:01.809Z,18752
2016-06-09T05:26:01.688Z,14896
2016-06-09T05:27:01.895Z,18432
2016-06-09T05:28:01.898Z,16928
2016-06-09T05:29:01.946Z,16352
2016-06-09T05:30:01.950Z,19168
2016-06-09T05:31:01.985Z,16672
2016-06-09T05:32:02.003Z,10792
2016-06-09T05:33:02.038Z,11648
2016-06-09T05:34:02.056Z,7896
2016-06-09T05:35:02.262Z,8008
2016-06-09T05:36:02.126Z,6652
2016-06-09T05:37:02.143Z,5424
2016-06-09T05:38:02.178Z,5708
2016-06-09T05:39:02.196Z,5276
2016-06-09T05:40:02.231Z,5252
2016-06-09T05:41:02.266Z,5140
2016-06-09T05:42:02.284Z,5072
2016-06-09T05:43:02.319Z,4464
2016-06-09T05:44:02.352Z,3540
2016-06-09T05:45:02.418Z,3388
2016-06-09T05:46:02.389Z,3388
2016-06-09T05:47:02.424Z,3360
2016-06-09T05:48:02.459Z,4036
2016-06-09T05:49:02.477Z,3720
2016-06-09T05:50:03.371Z,4120
2016-06-09T05:51:02.405Z,4224
2016-06-09T05:52:02.564Z,4212
2016-06-09T05:53:02.442Z,4508
2016-06-09T05:54:02.633Z,3644
2016-06-09T05:55:02.652Z,3364
2016-06-09T05:56:02.671Z,3304
2016-06-09T05:57:02.548Z,4476
2016-06-09T05:58:02.583Z,3416
2016-06-09T05:59:02.789Z,2584
2016-06-09T06:00:02.792Z,2288
2016-06-09T06:01:02.827Z,1992
2016-06-09T06:02:02.862Z,1848
2016-06-09T06:03:02.880Z,1796
2016-06-09T06:04:02.915Z,1852
2016-06-09T06:05:02.948Z,2024
2016-06-09T06:06:02.967Z,2280
2016-06-09T06:07:02.985Z,2640
2016-06-09T06:08:03.020Z,3148
2016-06-09T06:09:03.069Z,4100
2016-06-09T06:10:03.089Z,17280
2016-06-09T06:11:03.108Z,6132
2016-06-09T06:12:03.173Z,19008
2016-06-09T06:13:03.176Z,15464
2016-06-09T06:14:03.210Z,25984
2016-06-09T06:15:03.229Z,16504
2016-06-09T06:16:03.138Z,21120
2016-06-09T06:17:03.298Z,20672
2016-06-09T06:18:03.316Z,21632
2016-06-09T06:19:03.367Z,14364
2016-06-09T06:20:03.808Z,16928
2016-06-09T06:21:03.404Z,24992
2016-06-09T06:22:03.423Z,25248
2016-06-09T06:23:03.473Z,11340
2016-06-09T06:24:03.476Z,7000
2016-06-09T06:25:03.510Z,7044
2016-06-09T06:26:03.544Z,7276
2016-06-09T06:27:03.563Z,6948
2016-06-09T06:28:03.457Z,7404
2016-06-09T06:29:03.631Z,10552
2016-06-09T06:30:03.651Z,25536
2016-06-09T06:31:03.575Z,23200
2016-06-09T06:32:03.406Z,25792
2016-06-09T06:33:03.737Z,7724
2016-06-09T06:34:03.772Z,6344
2016-06-09T06:35:04.806Z,5932
2016-06-09T06:36:03.841Z,24928
2016-06-09T06:37:03.860Z,9160
2016-06-09T06:38:03.894Z,7736
2016-06-09T06:39:03.944Z,6764
2016-06-09T06:40:03.947Z,6848
2016-06-09T06:41:03.981Z,8052
2016-06-09T06:42:04.015Z,22560
2016-06-09T06:43:04.034Z,20064
2016-06-09T06:44:04.085Z,26368
2016-06-09T06:45:04.087Z,25536
2016-06-09T06:46:04.121Z,28128
2016-06-09T06:47:04.155Z,25376
2016-06-09T06:48:04.190Z,11172
2016-06-09T06:49:04.225Z,11964
2016-06-09T06:50:05.087Z,6872
2016-06-09T06:51:04.121Z,4864
2016-06-09T06:52:04.295Z,4008
2016-06-09T06:53:04.330Z,3736
2016-06-09T06:54:04.349Z,3732
2016-06-09T06:55:04.383Z,3508
2016-06-09T06:56:04.418Z,3200
2016-06-09T06:57:04.467Z,2972
2016-06-09T06:58:03.736Z,2812
2016-06-09T06:59:04.537Z,2752
2016-06-09T07:00:04.384Z,2772
2016-06-09T07:01:04.558Z,2956
2016-06-09T07:02:04.592Z,3428
2016-06-09T07:03:04.627Z,4172
2016-06-09T07:04:04.661Z,4916
2016-06-09T07:05:04.632Z,8264
2016-06-09T07:06:04.605Z,16416
2016-06-09T07:07:04.748Z,24768
2016-06-09T07:08:04.767Z,25792
2016-06-09T07:09:04.801Z,26080
2016-06-09T07:10:04.820Z,26464
2016-06-09T07:11:04.886Z,22880
2016-06-09T07:12:04.888Z,15852
2016-06-09T07:13:04.923Z,6008
2016-06-09T07:14:04.957Z,26144
2016-06-09T07:15:04.977Z,26592
2016-06-09T07:16:05.010Z,27488
2016-06-09T07:17:05.045Z,27648
2016-06-09T07:18:05.078Z,27456
2016-06-09T07:19:05.192Z,27616
2016-06-09T07:20:05.773Z,27520
2016-06-09T07:21:05.291Z,26368
2016-06-09T07:22:05.529Z,24992
2016-06-09T07:23:05.266Z,24736
2016-06-09T07:24:05.285Z,15340
2016-06-09T07:25:05.288Z,7344
2016-06-09T07:26:05.401Z,15464
2016-06-09T07:27:05.357Z,6852
2016-06-09T07:28:05.360Z,4436
2016-06-09T07:29:05.425Z,4296
2016-06-09T07:30:05.460Z,4688
2016-06-09T07:31:05.526Z,6384
2016-06-09T07:32:05.466Z,15116
2016-06-09T07:33:05.532Z,8208
2016-06-09T07:34:05.596Z,4880
2016-06-09T07:35:05.756Z,4908
2016-06-09T07:36:05.322Z,5980
2016-06-09T07:37:05.669Z,16704
2016-06-09T07:38:05.672Z,23840
2016-06-09T07:39:05.706Z,24672
2016-06-09T07:40:05.740Z,25376
2016-06-09T07:41:05.774Z,24928
2016-06-09T07:42:05.637Z,25152
2016-06-09T07:43:05.703Z,25312
2016-06-09T07:44:05.861Z,25344
2016-06-09T07:45:05.584Z,24480
2016-06-09T07:46:05.931Z,24448
2016-06-09T07:47:05.950Z,24544
2016-06-09T07:48:05.828Z,24224
2016-06-09T07:49:06.018Z,23296
2016-06-09T07:50:06.459Z,22848
2016-06-09T07:51:06.446Z,22880
2016-06-09T07:52:06.106Z,23104
2016-06-09T07:53:06.139Z,22816
2016-06-09T07:54:06.174Z,22080
2016-06-09T07:55:06.192Z,22048
2016-06-09T07:56:06.243Z,22144
2016-06-09T07:57:06.262Z,21760
2016-06-09T07:58:06.296Z,21952
2016-06-09T07:59:06.329Z,20992
2016-06-09T08:00:06.365Z,21344
2016-06-09T08:01:06.383Z,20896
2016-06-09T08:02:06.433Z,21312
2016-06-09T08:03:06.295Z,21344
2016-06-09T08:04:06.486Z,21632
2016-06-09T08:05:06.786Z,21344
2016-06-09T08:06:06.587Z,21440
2016-06-09T08:07:06.573Z,21056
2016-06-09T08:08:06.608Z,20608
2016-06-09T08:09:06.643Z,19712
2016-06-09T08:10:06.691Z,18656
2016-06-09T08:11:06.555Z,17856
2016-06-09T08:12:06.745Z,18880
2016-06-09T08:13:06.622Z,18528
2016-06-09T08:14:06.798Z,18432
2016-06-09T08:15:06.816Z,15376
2016-06-09T08:16:06.851Z,17376
2016-06-09T08:17:06.745Z,13880
2016-06-09T08:18:06.920Z,16348
2016-06-09T08:19:06.954Z,16504
2016-06-09T08:20:07.208Z,17000
2016-06-09T08:21:07.397Z,13552
2016-06-09T08:22:07.058Z,6960
2016-06-09T08:23:06.935Z,10512
2016-06-09T08:24:07.126Z,11324
2016-06-09T08:25:07.147Z,14828
2016-06-09T08:26:07.207Z,14248
2016-06-09T08:27:07.285Z,13732
2016-06-09T08:28:07.205Z,13868
2016-06-09T08:29:07.298Z,13392
2016-06-09T08:30:07.514Z,10884
2016-06-09T08:31:07.564Z,6716
2016-06-09T08:32:07.598Z,4276
2016-06-09T08:33:07.647Z,4116
2016-06-09T08:34:07.681Z,4120
2016-06-09T08:35:07.590Z,4360
2016-06-09T08:36:07.646Z,4536
2016-06-09T08:37:07.826Z,4412
2016-06-09T08:38:07.850Z,4360
2016-06-09T08:39:07.874Z,4188
2016-06-09T08:40:07.929Z,3644
2016-06-09T08:41:07.965Z,3360
2016-06-09T08:42:07.986Z,3200
2016-06-09T08:43:08.007Z,3160
2016-06-09T08:44:08.059Z,3108
2016-06-09T08:45:08.079Z,3064
2016-06-09T08:46:08.114Z,3032
2016-06-09T08:47:08.149Z,3012
2016-06-09T08:48:08.169Z,2980
2016-06-09T08:49:08.220Z,2940
2016-06-09T08:50:08.239Z,2924
2016-06-09T08:51:08.836Z,2900
2016-06-09T08:52:08.308Z,2896
2016-06-09T08:53:08.343Z,2880
2016-06-09T08:54:08.363Z,2908
2016-06-09T08:55:08.397Z,2936
2016-06-09T08:56:08.416Z,2928
2016-06-09T08:57:08.450Z,2916
2016-06-09T08:58:08.485Z,2892
2016-06-09T08:59:08.504Z,2864
2016-06-09T09:00:08.552Z,2860
2016-06-09T09:01:08.587Z,2848
2016-06-09T09:02:08.605Z,2820
2016-06-09T09:03:08.640Z,2780
2016-06-09T09:04:08.658Z,2744
2016-06-09T09:05:09.428Z,2696
2016-06-09T09:06:08.618Z,2648
2016-06-09T09:07:08.762Z,2616
2016-06-09T09:08:08.796Z,2624
2016-06-09T09:09:08.830Z,2608
2016-06-09T09:10:08.849Z,2568
2016-06-09T09:11:08.884Z,2524
2016-06-09T09:12:08.902Z,2504
2016-06-09T09:13:08.937Z,2500
2016-06-09T09:14:08.971Z,2508
2016-06-09T09:15:09.006Z,2508
2016-06-09T09:16:09.039Z,2504
2016-06-09T09:17:09.059Z,2508
2016-06-09T09:18:09.093Z,2504
2016-06-09T09:19:09.143Z,2500
2016-06-09T09:20:09.286Z,2508
2016-06-09T09:21:08.899Z,2504
2016-06-09T09:22:09.214Z,2492
2016-06-09T09:23:09.248Z,2456
2016-06-09T09:24:09.298Z,2404
2016-06-09T09:25:09.301Z,2356
2016-06-09T09:26:09.351Z,2340
2016-06-09T09:27:09.354Z,2316
2016-06-09T09:28:09.436Z,2300
2016-06-09T09:29:09.423Z,2276
2016-06-09T09:30:09.457Z,2248
2016-06-09T09:31:09.492Z,2264
2016-06-09T09:32:09.510Z,2248
2016-06-09T09:33:09.544Z,2248
2016-06-09T09:34:09.579Z,2264
2016-06-09T09:35:10.364Z,2284
2016-06-09T09:36:09.648Z,2320
2016-06-09T09:37:09.666Z,2364
2016-06-09T09:38:09.686Z,2384
2016-06-09T09:39:09.719Z,2400
2016-06-09T09:40:09.597Z,2364
2016-06-09T09:41:09.788Z,2260
2016-06-09T09:42:09.807Z,2200
2016-06-09T09:43:09.841Z,2172
2016-06-09T09:44:09.876Z,2144
2016-06-09T09:45:09.895Z,2128
2016-06-09T09:46:09.929Z,2112
2016-06-09T09:47:09.963Z,2108
2016-06-09T09:48:09.996Z,2092
2016-06-09T09:49:10.016Z,2084
2016-06-09T09:50:11.847Z,2072
2016-06-09T09:51:10.476Z,2060
2016-06-09T09:52:10.120Z,2056
2016-06-09T09:53:10.153Z,2048
2016-06-09T09:54:10.172Z,2044
2016-06-09T09:55:10.207Z,2048
2016-06-09T09:56:10.225Z,2048
2016-06-09T09:57:10.259Z,2048
2016-06-09T09:58:10.294Z,2044
2016-06-09T09:59:10.312Z,2044
2016-06-09T10:00:10.347Z,2032
2016-06-09T10:01:10.381Z,2020
2016-06-09T10:02:10.415Z,2008
2016-06-09T10:03:10.450Z,1992
2016-06-09T10:04:10.468Z,1984
2016-06-09T10:05:10.518Z,1980
2016-06-09T10:06:10.896Z,1988
2016-06-09T10:07:10.399Z,2012
2016-06-09T10:08:10.433Z,2040
2016-06-09T10:09:10.625Z,2072
2016-06-09T10:10:10.486Z,2108
2016-06-09T10:11:10.709Z,2112
2016-06-09T10:12:10.696Z,2112
2016-06-09T10:13:10.731Z,2104
2016-06-09T10:14:10.765Z,2092
2016-06-09T10:15:10.799Z,2088
2016-06-09T10:16:10.833Z,2068
2016-06-09T10:17:10.868Z,2060
2016-06-09T10:18:10.886Z,2056
2016-06-09T10:19:10.920Z,2052
2016-06-09T10:20:10.955Z,2040
2016-06-09T10:21:11.162Z,2048
2016-06-09T10:22:11.008Z,2060
2016-06-09T10:23:11.027Z,2064
2016-06-09T10:24:11.061Z,2056
2016-06-09T10:25:11.110Z,2052
2016-06-09T10:26:11.113Z,2048
2016-06-09T10:27:11.149Z,2044
2016-06-09T10:28:11.042Z,2040
2016-06-09T10:29:11.217Z,2032
2016-06-09T10:30:11.236Z,2040
2016-06-09T10:31:11.271Z,2036
2016-06-09T10:32:11.289Z,2032
2016-06-09T10:33:11.323Z,2028
2016-06-09T10:34:11.357Z,2028
2016-06-09T10:35:11.235Z,2028
2016-06-09T10:36:12.458Z,2044
2016-06-09T10:37:11.288Z,2032
2016-06-09T10:38:11.322Z,2012
2016-06-09T10:39:11.513Z,1988
2016-06-09T10:40:11.548Z,1976
2016-06-09T10:41:11.582Z,1964
2016-06-09T10:42:11.601Z,1944
2016-06-09T10:43:11.635Z,1968
2016-06-09T10:44:11.669Z,1984
2016-06-09T10:45:11.704Z,1980
2016-06-09T10:46:11.708Z,1984
2016-06-09T10:47:11.741Z,1968
2016-06-09T10:48:11.806Z,1980
2016-06-09T10:49:11.795Z,1980
2016-06-09T10:50:11.828Z,1980
2016-06-09T10:51:12.129Z,1948
2016-06-09T10:52:11.913Z,1940
2016-06-09T10:53:11.916Z,1928
2016-06-09T10:54:11.794Z,1940
2016-06-09T10:55:11.999Z,1928
2016-06-09T10:56:12.019Z,1928
2016-06-09T10:57:12.037Z,1916
2016-06-09T10:58:11.931Z,1920
2016-06-09T10:59:12.090Z,1920
2016-06-09T11:00:12.126Z,1920
2016-06-09T11:01:28.034Z,1908
2016-06-09T11:02:12.210Z,1908
2016-06-09T11:03:12.227Z,1908
2016-06-09T11:04:12.247Z,1884
2016-06-09T11:05:12.266Z,1888
2016-06-09T11:06:12.627Z,1892
2016-06-09T11:07:13.709Z,1876
2016-06-09T11:08:12.368Z,1872
2016-06-09T11:09:12.387Z,1876
2016-06-09T11:10:12.421Z,1880
2016-06-09T11:11:12.299Z,1896
2016-06-09T11:12:12.474Z,1912
2016-06-09T11:13:12.508Z,1920
2016-06-09T11:14:12.527Z,1900
2016-06-09T11:15:12.608Z,1884
2016-06-09T11:16:12.595Z,1884
2016-06-09T11:17:12.614Z,1884
2016-06-09T11:18:12.648Z,1884
2016-06-09T11:19:12.684Z,1876
2016-06-09T11:20:12.701Z,1876
2016-06-09T11:21:13.330Z,1880
2016-06-09T11:22:12.958Z,1876
2016-06-09T11:23:12.664Z,1868
2016-06-09T11:24:20.370Z,1868
2016-06-09T11:25:12.764Z,1856
2016-06-09T11:26:12.892Z,1876
2016-06-09T11:27:12.926Z,1868
2016-06-09T11:28:12.946Z,1888
2016-06-09T11:29:12.964Z,1892
2016-06-09T11:30:12.999Z,1900
2016-06-09T11:31:13.032Z,1912
2016-06-09T11:32:13.098Z,1896
2016-06-09T11:33:13.102Z,1912
2016-06-09T11:34:13.120Z,1924
2016-06-09T11:35:13.138Z,1948
2016-06-09T11:36:13.189Z,1964
2016-06-09T11:37:13.739Z,1968
2016-06-09T11:38:13.257Z,1960
2016-06-09T11:39:13.291Z,1968
2016-06-09T11:40:13.294Z,1968
2016-06-09T11:41:13.361Z,1968
2016-06-09T11:42:13.347Z,1976
2016-06-09T11:43:13.383Z,2032
2016-06-09T11:44:13.417Z,2000
2016-06-09T11:45:13.435Z,2016
2016-06-09T11:46:13.313Z,2060
2016-06-09T11:47:13.223Z,2048
2016-06-09T11:48:13.538Z,2044
2016-06-09T11:49:13.556Z,2048
2016-06-09T11:50:13.591Z,2012
2016-06-09T11:51:13.485Z,2016
2016-06-09T11:52:14.050Z,1980
2016-06-09T11:53:13.678Z,2000
2016-06-09T11:54:13.698Z,1996
2016-06-09T11:55:13.747Z,2020
2016-06-09T11:56:13.751Z,1972
2016-06-09T11:57:13.800Z,1980
2016-06-09T11:58:13.819Z,2004
2016-06-09T11:59:13.853Z,1988
2016-06-09T12:00:13.871Z,1992
2016-06-09T12:01:13.906Z,2004
2016-06-09T12:02:13.941Z,1988
2016-06-09T12:03:13.975Z,1996
2016-06-09T12:04:13.993Z,2008
2016-06-09T12:05:14.028Z,2012
2016-06-09T12:06:14.874Z,2020
2016-06-09T12:07:14.502Z,2016
2016-06-09T12:08:14.115Z,2016
2016-06-09T12:09:13.993Z,2004
2016-06-09T12:10:14.168Z,1968
2016-06-09T12:11:14.203Z,2024
2016-06-09T12:12:14.221Z,2016
2016-06-09T12:13:14.255Z,2008
2016-06-09T12:14:14.133Z,2012
2016-06-09T12:15:14.324Z,2020
2016-06-09T12:16:14.343Z,2020
2016-06-09T12:17:14.377Z,2008
2016-06-09T12:18:14.396Z,2028
2016-06-09T12:19:14.446Z,2044
2016-06-09T12:20:14.464Z,2048
2016-06-09T12:21:14.811Z,2016
2016-06-09T12:22:14.720Z,2056
2016-06-09T12:23:14.551Z,2056
2016-06-09T12:24:14.571Z,2060
2016-06-09T12:25:14.604Z,2084
2016-06-09T12:26:14.640Z,2104
2016-06-09T12:27:14.674Z,2084
2016-06-09T12:28:14.691Z,2084
2016-06-09T12:29:14.727Z,2108
2016-06-09T12:30:14.761Z,2108
2016-06-09T12:31:14.780Z,2100
2016-06-09T12:32:14.814Z,2084
2016-06-09T12:33:14.848Z,2040
2016-06-09T12:34:14.710Z,2036
2016-06-09T12:35:14.901Z,1960
2016-06-09T12:36:15.921Z,2036
2016-06-09T12:37:16.361Z,2052
2016-06-09T12:38:14.989Z,2032
2016-06-09T12:39:14.866Z,2012
2016-06-09T12:40:15.041Z,2084
2016-06-09T12:41:15.076Z,2056
2016-06-09T12:42:15.110Z,2116
2016-06-09T12:43:15.129Z,2100
2016-06-09T12:44:15.007Z,2120
2016-06-09T12:45:15.182Z,2096
2016-06-09T12:46:15.232Z,2112
2016-06-09T12:47:15.094Z,2116
2016-06-09T12:48:15.316Z,2116
2016-06-09T12:49:15.303Z,2116
2016-06-09T12:50:15.339Z,2116
2016-06-09T12:51:15.810Z,2084
2016-06-09T12:52:15.250Z,2140
2016-06-09T12:53:15.268Z,2124
2016-06-09T12:54:15.443Z,2128
2016-06-09T12:55:15.479Z,2108
2016-06-09T12:56:15.527Z,2088
2016-06-09T12:57:15.375Z,2108
2016-06-09T12:58:15.441Z,2096
2016-06-09T12:59:15.600Z,2116
2016-06-09T13:00:15.634Z,2156
2016-06-09T13:01:15.653Z,2136
2016-06-09T13:02:15.687Z,2116
2016-06-09T13:03:15.706Z,2112
2016-06-09T13:04:15.740Z,2104
2016-06-09T13:05:15.775Z,2108
2016-06-09T13:06:15.809Z,2112
2016-06-09T13:07:15.859Z,2104
2016-06-09T13:08:15.862Z,2084
2016-06-09T13:09:15.880Z,2108
2016-06-09T13:10:15.915Z,2124
2016-06-09T13:11:15.793Z,2144
2016-06-09T13:12:15.984Z,2184
2016-06-09T13:13:16.002Z,2176
2016-06-09T13:14:16.037Z,2192
2016-06-09T13:15:16.056Z,2220
2016-06-09T13:16:16.089Z,2200
2016-06-09T13:17:16.124Z,2156
2016-06-09T13:18:16.003Z,2160
2016-06-09T13:19:16.178Z,2184
2016-06-09T13:20:16.212Z,2184
2016-06-09T13:21:16.761Z,2176
2016-06-09T13:22:17.312Z,2184
2016-06-09T13:23:16.298Z,2176
2016-06-09T13:24:16.317Z,2164
2016-06-09T13:25:16.352Z,2176
2016-06-09T13:26:16.230Z,2168
2016-06-09T13:27:16.405Z,2184
2016-06-09T13:28:16.439Z,2188
2016-06-09T13:29:16.474Z,2192
2016-06-09T13:30:16.352Z,2180
2016-06-09T13:31:16.526Z,2192
2016-06-09T13:32:16.560Z,2192
2016-06-09T13:33:16.579Z,2192
2016-06-09T13:34:16.614Z,2204
2016-06-09T13:35:16.648Z,2204
2016-06-09T13:36:17.198Z,2192
2016-06-09T13:37:17.545Z,2156
2016-06-09T13:38:16.720Z,2196
2016-06-09T13:39:16.598Z,2172